sensor_id;sensor_type;location;lat;lon;timestamp;pressure;altitude;pressure_sealevel;temperature;humidity
24610;BME280;12758;47.890;11.694;2022-11-02T00:00:12;94439.41;;;13.61;77.15
24610;BME280;12758;47.890;11.694;2022-11-02T00:02:40;94442.28;;;13.64;76.37
24610;BME280;12758;47.890;11.694;2022-11-02T00:05:09;94438.41;;;13.65;76.60
24610;BME280;12758;47.890;11.694;2022-11-02T00:07:35;94435.34;;;13.67;76.25
24610;BME280;12758;47.890;11.694;2022-11-02T00:10:01;94434.56;;;13.66;76.23
24610;BME280;12758;47.890;11.694;2022-11-02T00:12:27;94431.03;;;13.66;76.20
24610;BME280;12758;47.890;11.694;2022-11-02T00:14:53;94436.66;;;13.61;76.61
24610;BME280;12758;47.890;11.694;2022-11-02T00:17:19;94430.78;;;13.59;76.22
24610;BME280;12758;47.890;11.694;2022-11-02T00:19:46;94441.34;;;13.60;76.20
24610;BME280;12758;47.890;11.694;2022-11-02T00:22:12;94441.19;;;13.57;76.19
24610;BME280;12758;47.890;11.694;2022-11-02T00:24:38;94443.94;;;13.57;76.38
24610;BME280;12758;47.890;11.694;2022-11-02T00:27:04;94446.88;;;13.51;76.52
24610;BME280;12758;47.890;11.694;2022-11-02T00:29:32;94443.00;;;13.52;76.41
24610;BME280;12758;47.890;11.694;2022-11-02T00:31:58;94444.16;;;13.51;76.66
24610;BME280;12758;47.890;11.694;2022-11-02T00:34:24;94448.13;;;13.33;77.08
24610;BME280;12758;47.890;11.694;2022-11-02T00:36:51;94440.69;;;13.42;77.38
24610;BME280;12758;47.890;11.694;2022-11-02T00:39:18;94443.19;;;13.47;76.40
24610;BME280;12758;47.890;11.694;2022-11-02T00:41:44;94450.94;;;13.45;76.07
24610;BME280;12758;47.890;11.694;2022-11-02T00:44:10;94445.91;;;13.47;76.50
24610;BME280;12758;47.890;11.694;2022-11-02T00:46:36;94453.19;;;13.43;76.47
24610;BME280;12758;47.890;11.694;2022-11-02T00:49:02;94448.66;;;13.47;76.05
24610;BME280;12758;47.890;11.694;2022-11-02T00:51:28;94459.09;;;13.45;76.33
24610;BME280;12758;47.890;11.694;2022-11-02T00:53:55;94447.97;;;13.50;75.41
24610;BME280;12758;47.890;11.694;2022-11-02T00:56:21;94452.50;;;13.46;75.86
24610;BME280;12758;47.890;11.694;2022-11-02T00:58:47;94447.06;;;13.46;75.68
24610;BME280;12758;47.890;11.694;2022-11-02T01:01:13;94445.66;;;13.40;75.86
24610;BME280;12758;47.890;11.694;2022-11-02T01:03:39;94443.41;;;13.42;75.64
24610;BME280;12758;47.890;11.694;2022-11-02T01:06:10;94448.13;;;13.33;75.66
24610;BME280;12758;47.890;11.694;2022-11-02T01:08:36;94439.72;;;13.38;75.40
24610;BME280;12758;47.890;11.694;2022-11-02T01:11:11;94435.09;;;13.39;75.55
24610;BME280;12758;47.890;11.694;2022-11-02T01:13:37;94449.84;;;13.38;75.36
24610;BME280;12758;47.890;11.694;2022-11-02T01:16:03;94453.09;;;13.22;75.50
24610;BME280;12758;47.890;11.694;2022-11-02T01:18:29;94445.00;;;13.14;76.10
24610;BME280;12758;47.890;11.694;2022-11-02T01:20:56;94444.03;;;13.10;76.02
24610;BME280;12758;47.890;11.694;2022-11-02T01:23:22;94450.97;;;13.07;76.49
24610;BME280;12758;47.890;11.694;2022-11-02T01:25:48;94452.22;;;13.10;76.59
24610;BME280;12758;47.890;11.694;2022-11-02T01:28:14;94441.78;;;13.12;76.49
24610;BME280;12758;47.890;11.694;2022-11-02T01:30:40;94452.41;;;13.04;76.52
24610;BME280;12758;47.890;11.694;2022-11-02T01:33:06;94448.41;;;13.02;76.72
24610;BME280;12758;47.890;11.694;2022-11-02T01:35:32;94449.84;;;12.99;76.51
24610;BME280;12758;47.890;11.694;2022-11-02T01:37:58;94448.94;;;12.95;76.88
24610;BME280;12758;47.890;11.694;2022-11-02T01:40:24;94451.63;;;13.04;76.34
24610;BME280;12758;47.890;11.694;2022-11-02T01:42:51;94447.34;;;12.94;76.70
24610;BME280;12758;47.890;11.694;2022-11-02T01:45:17;94448.56;;;13.05;76.86
24610;BME280;12758;47.890;11.694;2022-11-02T01:47:44;94444.56;;;13.03;76.75
24610;BME280;12758;47.890;11.694;2022-11-02T01:50:14;94444.09;;;13.01;76.29
24610;BME280;12758;47.890;11.694;2022-11-02T01:52:41;94435.84;;;13.10;76.26
24610;BME280;12758;47.890;11.694;2022-11-02T01:55:10;94445.00;;;13.14;76.03
24610;BME280;12758;47.890;11.694;2022-11-02T01:57:39;94434.78;;;13.02;76.20
24610;BME280;12758;47.890;11.694;2022-11-02T02:00:09;94432.03;;;13.11;76.36
24610;BME280;12758;47.890;11.694;2022-11-02T02:02:38;94444.72;;;13.07;74.91
24610;BME280;12758;47.890;11.694;2022-11-02T02:05:10;94439.72;;;12.79;74.40
24610;BME280;12758;47.890;11.694;2022-11-02T02:07:37;94448.00;;;12.91;76.24
24610;BME280;12758;47.890;11.694;2022-11-02T02:10:05;94453.06;;;13.01;76.35
24610;BME280;12758;47.890;11.694;2022-11-02T02:12:32;94447.34;;;12.94;76.25
24610;BME280;12758;47.890;11.694;2022-11-02T02:14:59;94454.84;;;12.97;76.21
24610;BME280;12758;47.890;11.694;2022-11-02T02:17:35;94454.66;;;13.02;75.74
24610;BME280;12758;47.890;11.694;2022-11-02T02:20:08;94451.75;;;13.08;75.91
24610;BME280;12758;47.890;11.694;2022-11-02T02:25:50;94443.47;;;12.95;76.00
24610;BME280;12758;47.890;11.694;2022-11-02T02:28:19;94439.91;;;13.03;75.58
24610;BME280;12758;47.890;11.694;2022-11-02T02:30:50;94449.47;;;13.10;75.32
24610;BME280;12758;47.890;11.694;2022-11-02T02:33:23;94449.06;;;12.99;75.49
24610;BME280;12758;47.890;11.694;2022-11-02T02:35:54;94445.31;;;12.82;74.64
24610;BME280;12758;47.890;11.694;2022-11-02T02:38:25;94446.72;;;12.42;76.03
24610;BME280;12758;47.890;11.694;2022-11-02T02:40:56;94461.03;;;11.78;81.50
24610;BME280;12758;47.890;11.694;2022-11-02T02:43:28;94458.13;;;12.35;80.12
24610;BME280;12758;47.890;11.694;2022-11-02T02:45:58;94458.72;;;12.49;78.40
24610;BME280;12758;47.890;11.694;2022-11-02T02:48:25;94462.53;;;12.66;77.71
24610;BME280;12758;47.890;11.694;2022-11-02T02:50:53;94465.38;;;12.69;78.04
24610;BME280;12758;47.890;11.694;2022-11-02T02:53:22;94462.16;;;12.76;77.03
24610;BME280;12758;47.890;11.694;2022-11-02T02:55:49;94469.06;;;12.73;76.82
24610;BME280;12758;47.890;11.694;2022-11-02T02:58:18;94461.72;;;12.65;76.39
24610;BME280;12758;47.890;11.694;2022-11-02T03:00:46;94464.09;;;12.67;76.79
24610;BME280;12758;47.890;11.694;2022-11-02T03:03:16;94469.69;;;12.79;77.09
24610;BME280;12758;47.890;11.694;2022-11-02T03:05:42;94467.25;;;12.86;76.64
24610;BME280;12758;47.890;11.694;2022-11-02T03:08:10;94472.81;;;12.90;76.09
24610;BME280;12758;47.890;11.694;2022-11-02T03:10:41;94471.97;;;12.68;76.18
24610;BME280;12758;47.890;11.694;2022-11-02T03:13:17;94478.88;;;12.57;76.22
24610;BME280;12758;47.890;11.694;2022-11-02T03:15:55;94465.53;;;12.73;76.82
24610;BME280;12758;47.890;11.694;2022-11-02T03:18:26;94469.19;;;12.77;76.43
24610;BME280;12758;47.890;11.694;2022-11-02T03:20:58;94475.91;;;12.88;76.38
24610;BME280;12758;47.890;11.694;2022-11-02T03:23:30;94470.50;;;12.71;76.09
24610;BME280;12758;47.890;11.694;2022-11-02T03:26:00;94495.00;;;11.89;80.85
24610;BME280;12758;47.890;11.694;2022-11-02T03:28:35;94484.72;;;12.03;81.96
24610;BME280;12758;47.890;11.694;2022-11-02T03:31:09;94480.56;;;12.15;81.83
24610;BME280;12758;47.890;11.694;2022-11-02T03:33:40;94488.25;;;12.12;81.48
24610;BME280;12758;47.890;11.694;2022-11-02T03:36:11;94482.31;;;12.19;82.19
24610;BME280;12758;47.890;11.694;2022-11-02T03:38:41;94493.53;;;12.09;83.31
24610;BME280;12758;47.890;11.694;2022-11-02T03:41:09;94500.75;;;11.96;84.70
24610;BME280;12758;47.890;11.694;2022-11-02T03:43:36;94503.97;;;11.98;84.01
24610;BME280;12758;47.890;11.694;2022-11-02T03:46:04;94510.03;;;11.95;85.30
24610;BME280;12758;47.890;11.694;2022-11-02T03:48:35;94511.41;;;11.58;88.92
24610;BME280;12758;47.890;11.694;2022-11-02T03:51:05;94513.84;;;11.77;87.36
24610;BME280;12758;47.890;11.694;2022-11-02T03:53:35;94518.53;;;11.85;86.87
24610;BME280;12758;47.890;11.694;2022-11-02T03:56:04;94514.06;;;11.98;84.91
24610;BME280;12758;47.890;11.694;2022-11-02T03:58:31;94522.84;;;11.86;86.09
24610;BME280;12758;47.890;11.694;2022-11-02T04:01:00;94525.84;;;11.10;93.71
24610;BME280;12758;47.890;11.694;2022-11-02T04:03:28;94536.47;;;11.29;94.10
24610;BME280;12758;47.890;11.694;2022-11-02T04:05:56;94530.44;;;11.40;93.65
24610;BME280;12758;47.890;11.694;2022-11-02T04:08:25;94527.28;;;11.82;89.02
24610;BME280;12758;47.890;11.694;2022-11-02T04:10:53;94528.75;;;11.97;86.39
24610;BME280;12758;47.890;11.694;2022-11-02T04:13:38;94534.34;;;12.00;86.06
24610;BME280;12758;47.890;11.694;2022-11-02T04:16:22;94541.88;;;11.95;87.21
24610;BME280;12758;47.890;11.694;2022-11-02T04:18:48;94538.22;;;12.17;83.66
24610;BME280;12758;47.890;11.694;2022-11-02T04:21:33;94548.78;;;12.27;83.81
24610;BME280;12758;47.890;11.694;2022-11-02T04:23:59;94549.75;;;12.14;85.81
24610;BME280;12758;47.890;11.694;2022-11-02T04:26:43;94556.59;;;12.20;84.95
24610;BME280;12758;47.890;11.694;2022-11-02T04:29:10;94547.00;;;12.31;83.03
24610;BME280;12758;47.890;11.694;2022-11-02T04:31:36;94551.81;;;12.34;82.10
24610;BME280;12758;47.890;11.694;2022-11-02T04:34:02;94543.28;;;12.44;81.73
24610;BME280;12758;47.890;11.694;2022-11-02T04:36:28;94544.59;;;12.38;82.67
24610;BME280;12758;47.890;11.694;2022-11-02T04:38:55;94550.34;;;12.45;81.39
24610;BME280;12758;47.890;11.694;2022-11-02T04:41:22;94547.31;;;12.29;83.73
24610;BME280;12758;47.890;11.694;2022-11-02T04:44:07;94548.91;;;12.13;86.03
24610;BME280;12758;47.890;11.694;2022-11-02T04:46:35;94540.56;;;12.35;82.17
24610;BME280;12758;47.890;11.694;2022-11-02T04:49:02;94542.66;;;12.47;81.83
24610;BME280;12758;47.890;11.694;2022-11-02T04:51:28;94541.53;;;12.48;80.67
24610;BME280;12758;47.890;11.694;2022-11-02T04:53:56;94531.41;;;12.57;80.04
24610;BME280;12758;47.890;11.694;2022-11-02T04:56:23;94529.81;;;12.56;80.13
24610;BME280;12758;47.890;11.694;2022-11-02T04:58:49;94534.00;;;12.45;81.13
24610;BME280;12758;47.890;11.694;2022-11-02T05:01:16;94529.53;;;12.49;80.69
24610;BME280;12758;47.890;11.694;2022-11-02T05:03:43;94535.91;;;12.53;80.08
24610;BME280;12758;47.890;11.694;2022-11-02T05:06:11;94537.66;;;12.58;79.37
24610;BME280;12758;47.890;11.694;2022-11-02T05:08:37;94527.59;;;12.58;79.61
24610;BME280;12758;47.890;11.694;2022-11-02T05:11:04;94528.25;;;12.55;79.92
24610;BME280;12758;47.890;11.694;2022-11-02T05:13:30;94518.28;;;12.59;79.22
24610;BME280;12758;47.890;11.694;2022-11-02T05:15:56;94518.94;;;12.56;79.53
24610;BME280;12758;47.890;11.694;2022-11-02T05:18:22;94517.84;;;12.49;80.61
24610;BME280;12758;47.890;11.694;2022-11-02T05:20:49;94521.38;;;12.41;81.35
24610;BME280;12758;47.890;11.694;2022-11-02T05:23:16;94518.69;;;12.23;84.51
24610;BME280;12758;47.890;11.694;2022-11-02T05:25:51;94518.50;;;12.28;83.23
24610;BME280;12758;47.890;11.694;2022-11-02T05:28:17;94510.31;;;12.20;85.04
24610;BME280;12758;47.890;11.694;2022-11-02T05:30:43;94518.03;;;12.18;85.40
24610;BME280;12758;47.890;11.694;2022-11-02T05:33:09;94520.75;;;12.18;85.03
24610;BME280;12758;47.890;11.694;2022-11-02T05:35:35;94515.47;;;12.12;85.74
24610;BME280;12758;47.890;11.694;2022-11-02T05:38:02;94514.00;;;11.80;90.25
24610;BME280;12758;47.890;11.694;2022-11-02T05:40:28;94514.78;;;11.81;90.89
24610;BME280;12758;47.890;11.694;2022-11-02T05:42:57;94513.03;;;11.76;90.23
24610;BME280;12758;47.890;11.694;2022-11-02T05:45:24;94516.38;;;11.64;92.00
24610;BME280;12758;47.890;11.694;2022-11-02T05:47:50;94519.75;;;11.70;90.42
24610;BME280;12758;47.890;11.694;2022-11-02T05:50:16;94516.88;;;11.75;90.11
24610;BME280;12758;47.890;11.694;2022-11-02T05:52:42;94514.16;;;11.84;89.15
24610;BME280;12758;47.890;11.694;2022-11-02T05:55:08;94512.44;;;11.97;86.89
24610;BME280;12758;47.890;11.694;2022-11-02T05:57:35;94517.88;;;11.88;88.64
24610;BME280;12758;47.890;11.694;2022-11-02T06:00:01;94514.16;;;11.84;89.11
24610;BME280;12758;47.890;11.694;2022-11-02T06:02:27;94516.88;;;11.66;91.08
24610;BME280;12758;47.890;11.694;2022-11-02T06:04:53;94521.81;;;11.47;93.09
24610;BME280;12758;47.890;11.694;2022-11-02T06:07:19;94531.41;;;11.53;94.13
24610;BME280;12758;47.890;11.694;2022-11-02T06:09:45;94520.88;;;11.60;92.56
24610;BME280;12758;47.890;11.694;2022-11-02T06:12:11;94534.59;;;11.55;92.89
24610;BME280;12758;47.890;11.694;2022-11-02T06:14:38;94533.63;;;11.51;93.42
24610;BME280;12758;47.890;11.694;2022-11-02T06:17:04;94538.44;;;11.54;93.61
24610;BME280;12758;47.890;11.694;2022-11-02T06:19:30;94546.13;;;11.61;92.65
24610;BME280;12758;47.890;11.694;2022-11-02T06:21:56;94547.09;;;11.74;91.36
24610;BME280;12758;47.890;11.694;2022-11-02T06:24:22;94554.13;;;11.75;90.44
24610;BME280;12758;47.890;11.694;2022-11-02T06:26:48;94547.09;;;11.74;90.42
24610;BME280;12758;47.890;11.694;2022-11-02T06:29:14;94547.44;;;11.81;90.11
24610;BME280;12758;47.890;11.694;2022-11-02T06:31:40;94556.38;;;11.64;91.96
24610;BME280;12758;47.890;11.694;2022-11-02T06:34:06;94556.97;;;11.52;92.71
24610;BME280;12758;47.890;11.694;2022-11-02T06:36:33;94553.63;;;11.47;93.81
24610;BME280;12758;47.890;11.694;2022-11-02T06:38:59;94556.59;;;11.28;95.51
24610;BME280;12758;47.890;11.694;2022-11-02T06:41:25;94560.91;;;11.29;95.04
24610;BME280;12758;47.890;11.694;2022-11-02T06:43:51;94560.16;;;11.37;94.28
24610;BME280;12758;47.890;11.694;2022-11-02T06:46:17;94562.22;;;11.31;93.26
24610;BME280;12758;47.890;11.694;2022-11-02T06:48:45;94562.88;;;11.37;93.20
24610;BME280;12758;47.890;11.694;2022-11-02T06:51:11;94566.72;;;11.45;91.53
24610;BME280;12758;47.890;11.694;2022-11-02T06:53:38;94575.72;;;11.54;91.00
24610;BME280;12758;47.890;11.694;2022-11-02T06:56:04;94570.75;;;11.64;90.09
24610;BME280;12758;47.890;11.694;2022-11-02T06:58:31;94587.06;;;11.64;89.31
24610;BME280;12758;47.890;11.694;2022-11-02T07:00:58;94578.16;;;11.73;88.56
24610;BME280;12758;47.890;11.694;2022-11-02T07:03:24;94579.91;;;11.77;88.69
24610;BME280;12758;47.890;11.694;2022-11-02T07:05:51;94591.34;;;11.88;88.24
24610;BME280;12758;47.890;11.694;2022-11-02T07:08:17;94593.38;;;11.82;88.84
24610;BME280;12758;47.890;11.694;2022-11-02T07:10:44;94588.41;;;11.84;88.04
24610;BME280;12758;47.890;11.694;2022-11-02T07:13:10;94591.97;;;11.85;87.96
24610;BME280;12758;47.890;11.694;2022-11-02T07:15:36;94596.06;;;11.74;88.81
24610;BME280;12758;47.890;11.694;2022-11-02T07:18:02;94597.31;;;11.68;89.79
24610;BME280;12758;47.890;11.694;2022-11-02T07:20:30;94597.34;;;11.76;89.28
24610;BME280;12758;47.890;11.694;2022-11-02T07:22:58;94591.78;;;11.81;89.28
24610;BME280;12758;47.890;11.694;2022-11-02T07:25:24;94595.50;;;11.94;88.51
24610;BME280;12758;47.890;11.694;2022-11-02T07:27:52;94595.50;;;11.94;87.32
24610;BME280;12758;47.890;11.694;2022-11-02T07:30:19;94599.75;;;11.78;88.76
24610;BME280;12758;47.890;11.694;2022-11-02T07:32:45;94606.03;;;11.87;87.60
24610;BME280;12758;47.890;11.694;2022-11-02T07:35:12;94608.06;;;11.73;88.47
24610;BME280;12758;47.890;11.694;2022-11-02T07:37:39;94609.41;;;11.93;87.19
24610;BME280;12758;47.890;11.694;2022-11-02T07:40:06;94606.72;;;12.01;85.89
24610;BME280;12758;47.890;11.694;2022-11-02T07:42:33;94607.81;;;12.00;85.36
24610;BME280;12758;47.890;11.694;2022-11-02T07:45:00;94612.47;;;12.08;84.94
24610;BME280;12758;47.890;11.694;2022-11-02T07:47:26;94607.03;;;12.08;85.04
24610;BME280;12758;47.890;11.694;2022-11-02T07:49:52;94603.03;;;12.15;84.27
24610;BME280;12758;47.890;11.694;2022-11-02T07:52:18;94611.84;;;12.11;84.85
24610;BME280;12758;47.890;11.694;2022-11-02T07:54:44;94613.44;;;12.12;85.86
24610;BME280;12758;47.890;11.694;2022-11-02T07:57:10;94608.16;;;12.16;85.88
24610;BME280;12758;47.890;11.694;2022-11-02T07:59:36;94606.72;;;12.19;85.26
24610;BME280;12758;47.890;11.694;2022-11-02T08:02:03;94604.81;;;12.28;83.33
24610;BME280;12758;47.890;11.694;2022-11-02T08:04:29;94606.75;;;12.36;83.14
24610;BME280;12758;47.890;11.694;2022-11-02T08:06:56;94595.50;;;12.38;82.15
24610;BME280;12758;47.890;11.694;2022-11-02T08:09:23;94606.72;;;12.53;82.78
24610;BME280;12758;47.890;11.694;2022-11-02T08:11:49;94612.47;;;12.61;80.95
24610;BME280;12758;47.890;11.694;2022-11-02T08:14:15;94613.13;;;12.57;80.89
24610;BME280;12758;47.890;11.694;2022-11-02T08:16:41;94603.66;;;12.72;80.53
24610;BME280;12758;47.890;11.694;2022-11-02T08:19:07;94608.47;;;12.75;80.98
24610;BME280;12758;47.890;11.694;2022-11-02T08:21:33;94604.13;;;12.74;81.47
24610;BME280;12758;47.890;11.694;2022-11-02T08:23:59;94607.56;;;13.10;81.71
24610;BME280;12758;47.890;11.694;2022-11-02T08:26:25;94607.13;;;12.99;78.00
24610;BME280;12758;47.890;11.694;2022-11-02T08:28:52;94610.00;;;13.02;77.85
24610;BME280;12758;47.890;11.694;2022-11-02T08:31:18;94608.25;;;12.89;78.20
24610;BME280;12758;47.890;11.694;2022-11-02T08:33:44;94616.94;;;12.91;77.11
24610;BME280;12758;47.890;11.694;2022-11-02T08:36:11;94612.72;;;13.02;79.20
24610;BME280;12758;47.890;11.694;2022-11-02T08:38:37;94623.63;;;13.02;77.37
24610;BME280;12758;47.890;11.694;2022-11-02T08:41:04;94623.97;;;12.92;77.00
24610;BME280;12758;47.890;11.694;2022-11-02T08:43:30;94619.16;;;12.89;77.35
24610;BME280;12758;47.890;11.694;2022-11-02T08:45:57;94622.19;;;12.96;79.07
24610;BME280;12758;47.890;11.694;2022-11-02T08:48:23;94627.47;;;13.01;80.03
24610;BME280;12758;47.890;11.694;2022-11-02T08:50:49;94623.97;;;12.92;78.61
24610;BME280;12758;47.890;11.694;2022-11-02T08:53:16;94627.19;;;12.94;78.65
24610;BME280;12758;47.890;11.694;2022-11-02T08:55:42;94629.13;;;12.85;78.43
24610;BME280;12758;47.890;11.694;2022-11-02T08:58:09;94631.66;;;12.90;78.39
24610;BME280;12758;47.890;11.694;2022-11-02T09:00:35;94639.06;;;12.81;80.27
24610;BME280;12758;47.890;11.694;2022-11-02T09:03:03;94628.16;;;12.81;80.60
24610;BME280;12758;47.890;11.694;2022-11-02T09:05:30;94628.16;;;12.81;79.69
24610;BME280;12758;47.890;11.694;2022-11-02T09:07:57;94636.81;;;12.83;79.73
24610;BME280;12758;47.890;11.694;2022-11-02T09:10:25;94632.00;;;12.80;78.89
24610;BME280;12758;47.890;11.694;2022-11-02T09:12:51;94628.63;;;12.83;78.41
24610;BME280;12758;47.890;11.694;2022-11-02T09:15:17;94632.31;;;12.87;78.07
24610;BME280;12758;47.890;11.694;2022-11-02T09:17:45;94622.88;;;12.85;79.34
24610;BME280;12758;47.890;11.694;2022-11-02T09:20:11;94634.56;;;12.85;78.31
24610;BME280;12758;47.890;11.694;2022-11-02T09:22:38;94636.16;;;13.03;77.92
24610;BME280;12758;47.890;11.694;2022-11-02T09:25:04;94628.06;;;13.16;79.72
24610;BME280;12758;47.890;11.694;2022-11-02T09:27:31;94637.69;;;13.22;78.89
24610;BME280;12758;47.890;11.694;2022-11-02T09:29:57;94639.13;;;13.28;77.70
24610;BME280;12758;47.890;11.694;2022-11-02T09:32:23;94630.31;;;13.31;77.16
24610;BME280;12758;47.890;11.694;2022-11-02T09:34:49;94628.84;;;13.34;77.03
24610;BME280;12758;47.890;11.694;2022-11-02T09:37:16;94635.25;;;13.38;74.43
24610;BME280;12758;47.890;11.694;2022-11-02T09:39:42;94638.63;;;13.43;73.00
24610;BME280;12758;47.890;11.694;2022-11-02T09:42:11;94640.00;;;13.58;75.68
24610;BME280;12758;47.890;11.694;2022-11-02T09:44:43;94652.88;;;13.49;74.04
24610;BME280;12758;47.890;11.694;2022-11-02T09:47:14;94648.56;;;13.39;72.51
24610;BME280;12758;47.890;11.694;2022-11-02T09:49:40;94648.56;;;13.39;73.05
24610;BME280;12758;47.890;11.694;2022-11-02T09:52:08;94641.47;;;13.47;75.11
24610;BME280;12758;47.890;11.694;2022-11-02T09:54:39;94650.69;;;13.72;74.97
24610;BME280;12758;47.890;11.694;2022-11-02T09:57:08;94655.38;;;13.63;73.54
24610;BME280;12758;47.890;11.694;2022-11-02T09:59:35;94658.94;;;13.55;74.80
24610;BME280;12758;47.890;11.694;2022-11-02T10:02:04;94653.88;;;13.36;72.07
24610;BME280;12758;47.890;11.694;2022-11-02T10:04:52;94652.78;;;13.28;72.32
24610;BME280;12758;47.890;11.694;2022-11-02T10:07:28;94655.97;;;13.39;73.94
24610;BME280;12758;47.890;11.694;2022-11-02T10:09:59;94659.50;;;13.39;72.87
24610;BME280;12758;47.890;11.694;2022-11-02T10:12:29;94656.56;;;13.44;72.86
24610;BME280;12758;47.890;11.694;2022-11-02T10:15:01;94657.22;;;13.41;72.79
24610;BME280;12758;47.890;11.694;2022-11-02T10:17:29;94661.41;;;13.39;73.78
24610;BME280;12758;47.890;11.694;2022-11-02T10:20:01;94661.72;;;13.37;72.32
24610;BME280;12758;47.890;11.694;2022-11-02T10:22:35;94660.94;;;13.37;73.81
24610;BME280;12758;47.890;11.694;2022-11-02T10:25:03;94659.84;;;13.29;73.08
24610;BME280;12758;47.890;11.694;2022-11-02T10:27:32;94663.97;;;13.35;72.85
24610;BME280;12758;47.890;11.694;2022-11-02T10:30:02;94656.44;;;13.32;72.31
24610;BME280;12758;47.890;11.694;2022-11-02T10:32:29;94666.25;;;13.33;72.59
24610;BME280;12758;47.890;11.694;2022-11-02T10:34:56;94670.06;;;13.32;72.61
24610;BME280;12758;47.890;11.694;2022-11-02T10:37:30;94651.19;;;13.27;72.36
24610;BME280;12758;47.890;11.694;2022-11-02T10:40:02;94661.44;;;13.30;71.97
24610;BME280;12758;47.890;11.694;2022-11-02T10:42:39;94659.78;;;13.38;72.78
24610;BME280;12758;47.890;11.694;2022-11-02T10:45:21;94649.53;;;13.43;72.33
24610;BME280;12758;47.890;11.694;2022-11-02T10:48:00;94654.81;;;13.40;71.87
24610;BME280;12758;47.890;11.694;2022-11-02T10:50:33;94643.13;;;13.39;72.14
24610;BME280;12758;47.890;11.694;2022-11-02T10:53:02;94648.56;;;13.39;71.52
24610;BME280;12758;47.890;11.694;2022-11-02T10:55:30;94645.22;;;13.34;69.83
24610;BME280;12758;47.890;11.694;2022-11-02T10:58:02;94638.13;;;13.41;70.91
24610;BME280;12758;47.890;11.694;2022-11-02T11:00:30;94640.34;;;13.48;70.59
24610;BME280;12758;47.890;11.694;2022-11-02T11:03:05;94643.03;;;13.65;71.87
24610;BME280;12758;47.890;11.694;2022-11-02T11:05:32;94646.53;;;13.66;71.10
24610;BME280;12758;47.890;11.694;2022-11-02T11:07:58;94640.16;;;13.62;72.19
24610;BME280;12758;47.890;11.694;2022-11-02T11:10:25;94638.09;;;13.88;73.05
24610;BME280;12758;47.890;11.694;2022-11-02T11:12:52;94644.69;;;13.87;70.96
24610;BME280;12758;47.890;11.694;2022-11-02T11:15:21;94644.31;;;13.97;70.68
24610;BME280;12758;47.890;11.694;2022-11-02T11:17:48;94640.06;;;13.79;68.57
24610;BME280;12758;47.890;11.694;2022-11-02T11:20:30;94644.72;;;13.79;68.88
24610;BME280;12758;47.890;11.694;2022-11-02T11:23:07;94642.72;;;13.96;70.67
24610;BME280;12758;47.890;11.694;2022-11-02T11:25:34;94643.28;;;13.81;69.84
24610;BME280;12758;47.890;11.694;2022-11-02T11:28:00;94642.63;;;13.84;70.13
24610;BME280;12758;47.890;11.694;2022-11-02T11:30:27;94639.75;;;13.81;69.59
24610;BME280;12758;47.890;11.694;2022-11-02T11:32:54;94642.69;;;13.67;70.10
24610;BME280;12758;47.890;11.694;2022-11-02T11:35:20;94646.16;;;13.76;69.76
24610;BME280;12758;47.890;11.694;2022-11-02T11:37:49;94648.13;;;13.67;69.66
24610;BME280;12758;47.890;11.694;2022-11-02T11:40:17;94651.72;;;13.59;69.93
24610;BME280;12758;47.890;11.694;2022-11-02T11:42:45;94645.59;;;13.62;71.00
24610;BME280;12758;47.890;11.694;2022-11-02T11:45:16;94644.59;;;13.75;70.78
24610;BME280;12758;47.890;11.694;2022-11-02T11:47:43;94643.41;;;13.85;69.79
24610;BME280;12758;47.890;11.694;2022-11-02T11:50:12;94644.06;;;13.82;68.66
24610;BME280;12758;47.890;11.694;2022-11-02T11:52:39;94642.47;;;13.81;69.55
24610;BME280;12758;47.890;11.694;2022-11-02T11:55:20;94634.22;;;13.89;69.65
24610;BME280;12758;47.890;11.694;2022-11-02T11:58:03;94632.72;;;14.01;69.48
24610;BME280;12758;47.890;11.694;2022-11-02T12:00:29;94632.63;;;13.88;68.26
24610;BME280;12758;47.890;11.694;2022-11-02T12:03:02;94630.44;;;13.73;69.89
24610;BME280;12758;47.890;11.694;2022-11-02T12:05:30;94628.06;;;13.71;68.35
24610;BME280;12758;47.890;11.694;2022-11-02T12:08:22;94621.00;;;13.70;69.65
24610;BME280;12758;47.890;11.694;2022-11-02T12:11:02;94622.28;;;13.73;68.23
24610;BME280;12758;47.890;11.694;2022-11-02T12:13:47;94623.69;;;13.79;68.32
24610;BME280;12758;47.890;11.694;2022-11-02T12:16:20;94617.00;;;13.68;68.61
24610;BME280;12758;47.890;11.694;2022-11-02T12:19:01;94627.94;;;13.68;69.77
24610;BME280;12758;47.890;11.694;2022-11-02T12:21:42;94614.28;;;13.68;69.10
24610;BME280;12758;47.890;11.694;2022-11-02T12:24:20;94615.53;;;13.70;68.78
24610;BME280;12758;47.890;11.694;2022-11-02T12:26:59;94624.53;;;13.71;70.28
24610;BME280;12758;47.890;11.694;2022-11-02T12:29:46;94610.72;;;13.67;69.37
24610;BME280;12758;47.890;11.694;2022-11-02T12:32:24;94612.50;;;13.72;70.87
24610;BME280;12758;47.890;11.694;2022-11-02T12:35:04;94615.75;;;13.65;72.24
24610;BME280;12758;47.890;11.694;2022-11-02T12:37:38;94611.91;;;13.58;70.07
24610;BME280;12758;47.890;11.694;2022-11-02T12:40:18;94616.06;;;13.64;73.12
24610;BME280;12758;47.890;11.694;2022-11-02T12:42:52;94612.06;;;13.61;73.11
24610;BME280;12758;47.890;11.694;2022-11-02T12:45:25;94618.31;;;13.62;70.56
24610;BME280;12758;47.890;11.694;2022-11-02T12:47:55;94614.03;;;13.52;71.43
24610;BME280;12758;47.890;11.694;2022-11-02T12:50:27;94620.00;;;13.45;71.50
24610;BME280;12758;47.890;11.694;2022-11-02T12:53:19;94606.53;;;13.40;70.71
24610;BME280;12758;47.890;11.694;2022-11-02T12:55:48;94611.50;;;13.38;71.18
24610;BME280;12758;47.890;11.694;2022-11-02T12:58:19;94609.75;;;13.42;70.57
24610;BME280;12758;47.890;11.694;2022-11-02T13:00:47;94611.88;;;13.28;70.52